PAL1805 RPLL-RPMD
Flight info
| Callsign | PAL1805 |
|---|---|
| Flight time | N/A |
| Altitude | 39000 |
| Route | IPATA2R IPATA B462 MASBA W9A BN W9 RIMAR RIMAR2P |
| Aircraft | A333/H-L/LB2D1 |
Departure
| Time | 2026-05-06 12:57 |
|---|---|
| Airport | Ninoy Aquino International Airport (RPLL) |
Arrival
| Time | N/A |
|---|---|
| Airport | Francisco Bangoy International Airport (RPMD) |
| Time | Latitude | Longitude | Altitude | Speed | Heading |
|---|---|---|---|---|---|
| 2026-05-06 12:18 | 14.50914 | 121.01413 | 90 ft | 0 kts | 330° |
| 2026-05-06 12:41 | 14.50910 | 121.01416 | 90 ft | 2 kts | 331° |
| 2026-05-06 12:41 | 14.50896 | 121.01423 | 90 ft | 2 kts | 332° |
| 2026-05-06 12:41 | 14.50883 | 121.01430 | 90 ft | 2 kts | 331° |
| 2026-05-06 12:42 | 14.50871 | 121.01438 | 90 ft | 2 kts | 331° |
| 2026-05-06 12:42 | 14.50857 | 121.01445 | 90 ft | 1 kts | 331° |
| 2026-05-06 12:42 | 14.50849 | 121.01450 | 90 ft | 2 kts | 321° |
| 2026-05-06 12:42 | 14.50840 | 121.01464 | 90 ft | 2 kts | 276° |
| 2026-05-06 12:43 | 14.50842 | 121.01479 | 90 ft | 1 kts | 241° |
| 2026-05-06 12:43 | 14.50845 | 121.01484 | 90 ft | 0 kts | 239° |
| 2026-05-06 12:48 | 14.50843 | 121.01481 | 90 ft | 1 kts | 239° |
| 2026-05-06 12:48 | 14.50829 | 121.01457 | 90 ft | 5 kts | 239° |
| 2026-05-06 12:48 | 14.50803 | 121.01410 | 90 ft | 9 kts | 241° |
| 2026-05-06 12:48 | 14.50769 | 121.01346 | 90 ft | 11 kts | 239° |
| 2026-05-06 12:49 | 14.50702 | 121.01318 | 90 ft | 11 kts | 179° |
| 2026-05-06 12:49 | 14.50654 | 121.01283 | 90 ft | 7 kts | 229° |
| 2026-05-06 12:49 | 14.50623 | 121.01236 | 90 ft | 8 kts | 239° |
| 2026-05-06 12:49 | 14.50590 | 121.01176 | 90 ft | 10 kts | 240° |
| 2026-05-06 12:50 | 14.50552 | 121.01109 | 90 ft | 11 kts | 241° |
| 2026-05-06 12:50 | 14.50512 | 121.01035 | 90 ft | 12 kts | 240° |
| 2026-05-06 12:50 | 14.50467 | 121.00954 | 90 ft | 13 kts | 240° |
| 2026-05-06 12:50 | 14.50436 | 121.00899 | 90 ft | 13 kts | 240° |
| 2026-05-06 12:51 | 14.50371 | 121.00781 | 90 ft | 14 kts | 240° |
| 2026-05-06 12:51 | 14.50319 | 121.00687 | 90 ft | 15 kts | 240° |
| 2026-05-06 12:51 | 14.50265 | 121.00590 | 90 ft | 15 kts | 240° |
| 2026-05-06 12:51 | 14.50210 | 121.00492 | 90 ft | 16 kts | 240° |
| 2026-05-06 12:52 | 14.50155 | 121.00391 | 90 ft | 16 kts | 240° |
| 2026-05-06 12:52 | 14.50097 | 121.00288 | 90 ft | 16 kts | 240° |
| 2026-05-06 12:52 | 14.50037 | 121.00182 | 90 ft | 17 kts | 240° |
| 2026-05-06 12:52 | 14.49979 | 121.00075 | 90 ft | 17 kts | 240° |
| 2026-05-06 12:53 | 14.49930 | 120.99989 | 90 ft | 9 kts | 236° |
| 2026-05-06 12:53 | 14.49868 | 120.99972 | 91 ft | 10 kts | 159° |
| 2026-05-06 12:53 | 14.49808 | 121.00018 | 91 ft | 10 kts | 116° |
| 2026-05-06 12:53 | 14.49821 | 121.00079 | 91 ft | 5 kts | 62° |
| 2026-05-06 12:56 | 14.49822 | 121.00082 | 91 ft | 1 kts | 61° |
| 2026-05-06 12:56 | 14.49848 | 121.00130 | 90 ft | 29 kts | 60° |
| 2026-05-06 12:56 | 14.50178 | 121.00721 | 90 ft | 109 kts | 60° |
| 2026-05-06 12:57 | 14.50645 | 121.01562 | 92 ft | 157 kts | 61° |
| 2026-05-06 12:57 | 14.51232 | 121.02613 | 348 ft | 175 kts | 61° |
| 2026-05-06 12:57 | 14.51822 | 121.03679 | 963 ft | 170 kts | 62° |
| 2026-05-06 12:57 | 14.52394 | 121.04725 | 1592 ft | 167 kts | 59° |
| 2026-05-06 12:58 | 14.52970 | 121.05767 | 2127 ft | 165 kts | 59° |
| 2026-05-06 12:58 | 14.53551 | 121.06812 | 2423 ft | 174 kts | 59° |
| 2026-05-06 12:58 | 14.54174 | 121.07933 | 2664 ft | 187 kts | 59° |
| 2026-05-06 12:58 | 14.54837 | 121.09126 | 2928 ft | 198 kts | 59° |
| 2026-05-06 12:59 | 14.55379 | 121.10473 | 3249 ft | 210 kts | 84° |
| 2026-05-06 12:59 | 14.54973 | 121.11955 | 3487 ft | 231 kts | 126° |
| 2026-05-06 12:59 | 14.54200 | 121.12779 | 3682 ft | 243 kts | 137° |
| 2026-05-06 13:01 | 14.45467 | 121.20967 | 7074 ft | 282 kts | 132° |
| 2026-05-06 13:01 | 14.44075 | 121.22402 | 7747 ft | 284 kts | 132° |
| 2026-05-06 13:01 | 14.42662 | 121.23856 | 8415 ft | 286 kts | 132° |
| 2026-05-06 13:01 | 14.41254 | 121.25305 | 9036 ft | 289 kts | 132° |
| 2026-05-06 13:02 | 14.40298 | 121.26289 | 9446 ft | 290 kts | 132° |
| 2026-05-06 13:02 | 14.38392 | 121.28250 | 10240 ft | 294 kts | 132° |
| 2026-05-06 13:02 | 14.37894 | 121.28763 | 10382 ft | 298 kts | 132° |
| 2026-05-06 13:03 | 14.33717 | 121.33062 | 11159 ft | 335 kts | 133° |
| 2026-05-06 13:03 | 14.32050 | 121.34771 | 11691 ft | 339 kts | 133° |
| 2026-05-06 13:03 | 14.30373 | 121.36491 | 12266 ft | 341 kts | 133° |
| 2026-05-06 13:03 | 14.28686 | 121.38223 | 12812 ft | 344 kts | 133° |
| 2026-05-06 13:04 | 14.26990 | 121.39964 | 13338 ft | 347 kts | 133° |
| 2026-05-06 13:04 | 14.25276 | 121.41723 | 13873 ft | 350 kts | 133° |
| 2026-05-06 13:04 | 14.23551 | 121.43491 | 14390 ft | 353 kts | 133° |
| 2026-05-06 13:04 | 14.21806 | 121.45280 | 14904 ft | 355 kts | 133° |
| 2026-05-06 13:05 | 14.20045 | 121.47081 | 15410 ft | 358 kts | 133° |
| 2026-05-06 13:05 | 14.18269 | 121.48900 | 15909 ft | 361 kts | 133° |
| 2026-05-06 13:05 | 14.16474 | 121.50738 | 16405 ft | 364 kts | 134° |
| 2026-05-06 13:05 | 14.14664 | 121.52593 | 16899 ft | 366 kts | 134° |
| 2026-05-06 13:06 | 14.12869 | 121.54433 | 17374 ft | 369 kts | 134° |
| 2026-05-06 13:06 | 14.11044 | 121.56301 | 17848 ft | 371 kts | 134° |
| 2026-05-06 13:06 | 14.09192 | 121.58198 | 18323 ft | 374 kts | 134° |
| 2026-05-06 13:06 | 14.07340 | 121.60091 | 18794 ft | 377 kts | 134° |
| 2026-05-06 13:07 | 14.05478 | 121.61996 | 19257 ft | 379 kts | 134° |
| 2026-05-06 13:07 | 14.03606 | 121.63908 | 19717 ft | 382 kts | 134° |
| 2026-05-06 13:07 | 14.01709 | 121.65848 | 20166 ft | 385 kts | 134° |
| 2026-05-06 13:07 | 13.99798 | 121.67802 | 20607 ft | 387 kts | 134° |
| 2026-05-06 13:08 | 13.97870 | 121.69775 | 21036 ft | 390 kts | 134° |
| 2026-05-06 13:08 | 13.95943 | 121.71747 | 21452 ft | 393 kts | 134° |
| 2026-05-06 13:08 | 13.93994 | 121.73742 | 21864 ft | 396 kts | 134° |
| 2026-05-06 13:08 | 13.92042 | 121.75738 | 22262 ft | 399 kts | 134° |
| 2026-05-06 13:09 | 13.90062 | 121.77762 | 22666 ft | 402 kts | 134° |
| 2026-05-06 13:09 | 13.88067 | 121.79802 | 23066 ft | 404 kts | 134° |
| 2026-05-06 13:09 | 13.86100 | 121.81934 | 23469 ft | 407 kts | 131° |
| 2026-05-06 13:09 | 13.84258 | 121.84142 | 23871 ft | 409 kts | 129° |
| 2026-05-06 13:10 | 13.82416 | 121.86392 | 24271 ft | 411 kts | 129° |
| 2026-05-06 13:10 | 13.80591 | 121.88630 | 24660 ft | 414 kts | 129° |
| 2026-05-06 13:10 | 13.78732 | 121.90911 | 25041 ft | 416 kts | 129° |
| 2026-05-06 13:10 | 13.76853 | 121.93214 | 25411 ft | 419 kts | 129° |
| 2026-05-06 13:11 | 13.74971 | 121.95519 | 25778 ft | 421 kts | 129° |
| 2026-05-06 13:11 | 13.73082 | 121.97833 | 26144 ft | 424 kts | 129° |
| 2026-05-06 13:11 | 13.71187 | 122.00155 | 26495 ft | 426 kts | 129° |
| 2026-05-06 13:11 | 13.69279 | 122.02491 | 26825 ft | 429 kts | 129° |
| 2026-05-06 13:12 | 13.67331 | 122.04877 | 27157 ft | 432 kts | 130° |
| 2026-05-06 13:12 | 13.65391 | 122.07250 | 27481 ft | 435 kts | 130° |
| 2026-05-06 13:12 | 13.63435 | 122.09641 | 27808 ft | 438 kts | 130° |
| 2026-05-06 13:12 | 13.61473 | 122.12039 | 28141 ft | 440 kts | 130° |
| 2026-05-06 13:13 | 13.59512 | 122.14435 | 28473 ft | 442 kts | 130° |
| 2026-05-06 13:13 | 13.57511 | 122.16880 | 28799 ft | 444 kts | 130° |
| 2026-05-06 13:13 | 13.55512 | 122.19312 | 29120 ft | 446 kts | 130° |
| 2026-05-06 13:13 | 13.53518 | 122.21752 | 29415 ft | 448 kts | 130° |
| 2026-05-06 13:14 | 13.51514 | 122.24209 | 29707 ft | 451 kts | 130° |
| 2026-05-06 13:14 | 13.49500 | 122.26675 | 30002 ft | 453 kts | 130° |
| 2026-05-06 13:14 | 13.47469 | 122.29160 | 30300 ft | 455 kts | 130° |
| 2026-05-06 13:14 | 13.45412 | 122.31673 | 30595 ft | 457 kts | 130° |
| 2026-05-06 13:15 | 13.43373 | 122.34161 | 30887 ft | 458 kts | 130° |
| 2026-05-06 13:15 | 13.41331 | 122.36652 | 31167 ft | 460 kts | 130° |
| 2026-05-06 13:15 | 13.39244 | 122.39197 | 31443 ft | 462 kts | 130° |
| 2026-05-06 13:15 | 13.37157 | 122.41740 | 31711 ft | 464 kts | 130° |
| 2026-05-06 13:16 | 13.35787 | 122.43408 | 31880 ft | 466 kts | 130° |
| 2026-05-06 13:17 | 13.26875 | 122.54254 | 33032 ft | 473 kts | 131° |
| 2026-05-06 13:17 | 13.24732 | 122.56859 | 33398 ft | 473 kts | 131° |
| 2026-05-06 13:17 | 13.22610 | 122.59441 | 33841 ft | 471 kts | 131° |
| 2026-05-06 13:17 | 13.20500 | 122.62008 | 34298 ft | 469 kts | 131° |
| 2026-05-06 13:18 | 13.17720 | 122.65386 | 34876 ft | 467 kts | 131° |
| 2026-05-06 13:18 | 13.16329 | 122.67076 | 35140 ft | 466 kts | 131° |
| 2026-05-06 13:18 | 13.14230 | 122.69624 | 35468 ft | 466 kts | 131° |
| 2026-05-06 13:18 | 13.11420 | 122.73034 | 35798 ft | 468 kts | 131° |
| 2026-05-06 13:19 | 13.09337 | 122.75562 | 36007 ft | 470 kts | 131° |
| 2026-05-06 13:19 | 13.07902 | 122.77302 | 36154 ft | 471 kts | 131° |
| 2026-05-06 13:19 | 13.05789 | 122.79866 | 36382 ft | 472 kts | 131° |
| 2026-05-06 13:19 | 13.02963 | 122.83294 | 36708 ft | 473 kts | 131° |
| 2026-05-06 13:20 | 13.00839 | 122.85869 | 36886 ft | 474 kts | 131° |
| 2026-05-06 13:20 | 12.97289 | 122.90169 | 36892 ft | 475 kts | 131° |
| 2026-05-06 13:21 | 12.93011 | 122.95350 | 36893 ft | 474 kts | 131° |
| 2026-05-06 13:21 | 12.88744 | 123.00516 | 36892 ft | 474 kts | 131° |
| 2026-05-06 13:22 | 12.84487 | 123.05666 | 36892 ft | 474 kts | 131° |
| 2026-05-06 13:22 | 12.80240 | 123.10802 | 36889 ft | 473 kts | 131° |
| 2026-05-06 13:23 | 12.75973 | 123.15958 | 36890 ft | 473 kts | 131° |
| 2026-05-06 13:23 | 12.71726 | 123.21088 | 36887 ft | 472 kts | 131° |
| 2026-05-06 13:24 | 12.69572 | 123.23688 | 36886 ft | 472 kts | 131° |